Time;durP1;ratioP1;P1;durP2;ratioP2;P2;SDS_P1;SDS_P2;PMS_P1;PMS_P2;Temp;Humidity;BMP_temperature;BMP_pressure;BME280_temperature;BME280_humidity;BME280_pressure;Samples;Min_cycle;Max_cycle;Signal;HPM_P1;HPM_P2
2022/10/05 00:00:20;;;;;;;5.40;4.20;;;24.10;50.50;;;;;;4999646;28;20863;-83
2022/10/05 00:02:51;;;;;;;5.77;3.73;;;24.10;50.10;;;;;;5001261;28;20408;-82
2022/10/05 00:05:25;;;;;;;6.37;4.70;;;24.10;50.50;;;;;;4990226;28;20462;-82
2022/10/05 00:07:54;;;;;;;4.50;3.30;;;24.10;50.90;;;;;;4993478;28;20438;-82
2022/10/05 00:10:22;;;;;;;3.80;3.50;;;24.10;50.30;;;;;;4998982;28;20441;-83
2022/10/05 00:12:50;;;;;;;3.83;3.53;;;24.10;50.10;;;;;;4993734;28;20456;-82
2022/10/05 00:15:19;;;;;;;5.43;3.47;;;24.10;50.40;;;;;;5000924;28;20445;-81
2022/10/05 00:17:47;;;;;;;4.00;3.53;;;24.10;51.00;;;;;;4996832;28;20453;-82
2022/10/05 00:20:20;;;;;;;3.77;3.47;;;24.10;50.30;;;;;;4996337;28;20445;-82
2022/10/05 00:22:48;;;;;;;3.40;3.20;;;24.10;50.40;;;;;;4999387;28;20427;-79
2022/10/05 00:25:16;;;;;;;3.93;3.43;;;24.10;50.40;;;;;;4999184;28;20412;-82
2022/10/05 00:27:46;;;;;;;3.97;3.50;;;24.00;50.40;;;;;;4993715;28;20432;-83
2022/10/05 00:30:16;;;;;;;3.80;3.50;;;24.00;50.40;;;;;;4999020;28;20437;-82
2022/10/05 00:32:44;;;;;;;3.73;3.00;;;24.00;50.40;;;;;;5000688;28;20513;-82
2022/10/05 00:35:13;;;;;;;5.70;3.73;;;24.00;50.30;;;;;;4997474;28;20424;-82
2022/10/05 00:37:42;;;;;;;4.30;3.90;;;24.00;50.40;;;;;;5000725;28;20454;-83
2022/10/05 00:40:23;;;;;;;4.50;3.77;;;24.00;50.30;;;;;;4998967;28;20452;-82
2022/10/05 00:42:55;;;;;;;3.73;3.43;;;24.00;50.60;;;;;;4993021;28;20424;-80
2022/10/05 00:45:26;;;;;;;4.33;3.70;;;24.00;50.50;;;;;;4998709;28;20431;-82
2022/10/05 00:47:57;;;;;;;3.80;3.40;;;24.00;50.50;;;;;;4996877;28;20424;-82
2022/10/05 00:50:36;;;;;;;6.83;3.80;;;24.00;50.40;;;;;;5002688;28;20449;-84
2022/10/05 00:53:11;;;;;;;3.87;3.50;;;24.00;50.50;;;;;;5003105;28;20441;-80
2022/10/05 00:55:45;;;;;;;4.20;3.60;;;23.90;50.60;;;;;;5000261;28;20491;-82
2022/10/05 00:58:17;;;;;;;3.67;3.37;;;23.90;50.50;;;;;;5004428;28;20468;-80
2022/10/05 01:00:49;;;;;;;5.03;3.63;;;23.90;50.60;;;;;;5005442;28;20460;-80
2022/10/05 01:03:19;;;;;;;4.87;3.60;;;23.90;50.40;;;;;;4998542;28;20436;-82
2022/10/05 01:05:54;;;;;;;3.53;3.23;;;23.90;50.50;;;;;;4995537;28;20433;-82
2022/10/05 01:08:29;;;;;;;3.53;3.30;;;23.90;50.70;;;;;;5004492;28;20772;-81
2022/10/05 01:11:02;;;;;;;4.23;3.60;;;23.90;50.80;;;;;;5004942;28;20457;-82
2022/10/05 01:13:32;;;;;;;5.40;4.00;;;23.90;50.80;;;;;;5002803;28;20436;-81
2022/10/05 01:16:05;;;;;;;3.83;3.50;;;23.90;50.80;;;;;;5004590;28;20461;-82
2022/10/05 01:18:37;;;;;;;4.30;4.00;;;23.90;50.70;;;;;;5004332;28;20653;-81
2022/10/05 01:21:08;;;;;;;5.60;3.77;;;23.90;51.00;;;;;;5001655;28;20500;-81
2022/10/05 01:24:14;;;;;;;3.53;3.23;;;23.90;50.80;;;;;;4997085;28;20814;-81
2022/10/05 01:26:50;;;;;;;5.13;3.40;;;23.90;50.80;;;;;;4999630;28;20478;-81
2022/10/05 01:29:22;;;;;;;4.43;3.70;;;23.90;50.90;;;;;;4996200;28;20491;-82
2022/10/05 01:31:53;;;;;;;4.20;3.83;;;23.80;50.60;;;;;;5000829;28;20443;-81
2022/10/05 01:34:23;;;;;;;3.40;3.20;;;23.80;50.90;;;;;;5003028;28;20484;-82
2022/10/05 01:36:54;;;;;;;4.10;3.77;;;23.80;50.80;;;;;;5000116;28;20415;-82
2022/10/05 01:39:24;;;;;;;5.80;3.63;;;23.80;50.90;;;;;;4992391;28;20461;-83
2022/10/05 01:41:56;;;;;;;3.73;3.43;;;23.80;50.90;;;;;;4993962;28;20432;-82
2022/10/05 01:44:27;;;;;;;3.80;3.50;;;23.80;51.00;;;;;;4998871;28;20438;-81
2022/10/05 01:46:58;;;;;;;5.20;3.90;;;23.80;50.80;;;;;;5001511;28;20480;-82
2022/10/05 01:49:36;;;;;;;3.90;3.60;;;23.80;50.90;;;;;;4991907;28;20439;-81
2022/10/05 01:52:12;;;;;;;3.83;3.53;;;23.80;50.70;;;;;;4995914;28;20438;-82
2022/10/05 01:54:44;;;;;;;4.83;3.70;;;23.70;50.80;;;;;;5000503;28;20418;-81
2022/10/05 01:57:17;;;;;;;4.60;4.20;;;23.70;51.00;;;;;;4994383;28;20453;-81
2022/10/05 01:59:54;;;;;;;3.60;3.30;;;23.70;50.80;;;;;;5000082;28;20441;-81
2022/10/05 02:02:23;;;;;;;3.70;3.50;;;23.70;51.00;;;;;;4999885;28;20452;-81
2022/10/05 02:04:53;;;;;;;4.10;3.70;;;23.70;51.00;;;;;;4994757;28;20457;-82
2022/10/05 02:07:29;;;;;;;4.20;3.80;;;23.70;50.80;;;;;;4999084;28;20450;-82
2022/10/05 02:09:59;;;;;;;4.03;3.70;;;23.70;51.00;;;;;;4996366;28;20428;-82
2022/10/05 02:12:29;;;;;;;7.60;4.60;;;23.70;51.00;;;;;;5001905;28;20444;-81
2022/10/05 02:15:01;;;;;;;4.60;4.20;;;23.70;50.80;;;;;;4994816;28;20456;-81
2022/10/05 02:17:32;;;;;;;3.87;3.60;;;23.60;51.00;;;;;;4993023;28;21005;-81
2022/10/05 02:20:01;;;;;;;3.57;3.27;;;23.70;51.10;;;;;;4998807;28;20452;-80
2022/10/05 02:22:30;;;;;;;4.30;3.63;;;23.60;51.00;;;;;;4992438;28;20452;-80
2022/10/05 02:25:00;;;;;;;6.47;3.97;;;23.60;51.20;;;;;;4993800;28;20453;-80
2022/10/05 02:27:29;;;;;;;3.87;3.53;;;23.60;51.20;;;;;;4993488;28;20443;-80
2022/10/05 02:30:01;;;;;;;3.77;3.47;;;23.60;51.30;;;;;;4985438;28;20823;-80
2022/10/05 02:32:32;;;;;;;4.60;4.00;;;23.60;51.20;;;;;;4992332;28;20477;-80
2022/10/05 02:35:01;;;;;;;5.90;3.40;;;23.50;51.30;;;;;;4996015;28;20420;-81
2022/10/05 02:37:34;;;;;;;3.77;3.40;;;23.50;51.10;;;;;;4995317;28;20426;-79
2022/10/05 02:40:09;;;;;;;4.13;3.73;;;23.50;51.20;;;;;;4994892;28;20775;-80
2022/10/05 02:42:42;;;;;;;4.00;3.13;;;23.50;51.30;;;;;;4989055;28;20508;-80
2022/10/05 02:45:15;;;;;;;5.17;3.80;;;23.50;51.30;;;;;;4995811;28;20430;-80
2022/10/05 02:47:46;;;;;;;3.90;3.60;;;23.50;51.20;;;;;;4988278;28;20508;-80
2022/10/05 02:50:17;;;;;;;3.87;3.57;;;23.50;51.40;;;;;;4988934;28;20445;-81
2022/10/05 02:52:47;;;;;;;4.10;3.67;;;23.50;51.50;;;;;;4996566;28;20411;-81
2022/10/05 02:55:17;;;;;;;4.60;4.00;;;23.50;51.60;;;;;;4994198;28;20434;-80
2022/10/05 02:57:48;;;;;;;4.27;3.87;;;23.50;51.60;;;;;;4995304;28;20476;-80
2022/10/05 03:00:19;;;;;;;4.07;3.33;;;23.50;51.60;;;;;;4986846;28;20457;-80
2022/10/05 03:02:51;;;;;;;3.50;3.30;;;23.40;51.40;;;;;;4987754;28;20445;-80
2022/10/05 03:05:22;;;;;;;4.33;3.63;;;23.40;51.50;;;;;;4992467;28;20436;-80
2022/10/05 03:07:54;;;;;;;3.93;3.63;;;23.40;51.60;;;;;;4992922;28;20428;-80
2022/10/05 03:10:27;;;;;;;4.33;3.93;;;23.40;51.70;;;;;;4996377;28;20408;-80
2022/10/05 03:13:00;;;;;;;4.03;3.70;;;23.40;51.50;;;;;;4995785;28;20456;-81
2022/10/05 03:15:45;;;;;;;4.10;3.70;;;23.40;51.60;;;;;;4996193;28;20429;-79
2022/10/05 03:18:15;;;;;;;4.30;3.93;;;23.30;51.40;;;;;;4996316;28;20480;-80
2022/10/05 03:20:47;;;;;;;4.40;4.00;;;23.30;51.50;;;;;;4998049;28;20986;-80
2022/10/05 03:23:19;;;;;;;4.10;3.33;;;23.30;51.70;;;;;;4999728;28;20438;-80
2022/10/05 03:26:11;;;;;;;4.03;3.60;;;23.30;51.90;;;;;;5001750;28;20427;-81
2022/10/05 03:28:43;;;;;;;3.70;3.50;;;23.40;51.90;;;;;;4999877;28;20455;-80
2022/10/05 03:31:14;;;;;;;4.07;3.67;;;23.30;51.60;;;;;;5000042;28;20456;-81
2022/10/05 03:33:45;;;;;;;4.13;3.80;;;23.30;51.90;;;;;;4999017;28;20483;-80
2022/10/05 03:36:17;;;;;;;4.83;3.80;;;23.30;51.80;;;;;;4992762;28;20481;-80
2022/10/05 03:38:48;;;;;;;4.00;3.60;;;23.30;51.90;;;;;;4998775;28;20476;-80
2022/10/05 03:41:20;;;;;;;4.20;3.80;;;23.30;51.90;;;;;;4998887;28;20435;-80
2022/10/05 03:44:01;;;;;;;3.57;3.37;;;23.30;51.90;;;;;;4998586;28;20449;-80
2022/10/05 03:46:44;;;;;;;3.70;3.40;;;23.30;52.10;;;;;;4999100;28;20457;-81
2022/10/05 03:49:15;;;;;;;4.03;3.70;;;23.30;52.10;;;;;;4996397;28;20504;-81
2022/10/05 03:51:45;;;;;;;4.60;3.97;;;23.30;52.10;;;;;;5002856;28;20477;-80
2022/10/05 03:54:16;;;;;;;4.40;3.40;;;23.30;52.00;;;;;;5002137;28;20429;-81
2022/10/05 03:56:46;;;;;;;8.03;3.90;;;23.30;52.00;;;;;;5001988;28;20426;-82
2022/10/05 03:59:16;;;;;;;4.33;3.93;;;23.20;51.90;;;;;;4999606;28;20563;-81
2022/10/05 04:01:49;;;;;;;4.40;4.00;;;23.20;52.10;;;;;;5000978;28;20464;-80
2022/10/05 04:04:19;;;;;;;4.63;4.00;;;23.20;52.00;;;;;;5002571;28;20430;-80
2022/10/05 04:06:47;;;;;;;5.67;3.93;;;23.20;52.00;;;;;;4997154;28;20563;-80
2022/10/05 04:09:18;;;;;;;4.83;3.60;;;23.20;52.20;;;;;;5001416;28;20462;-81
2022/10/05 04:11:49;;;;;;;3.93;3.43;;;23.20;52.00;;;;;;4999018;28;21062;-81
2022/10/05 04:14:19;;;;;;;4.33;4.03;;;23.10;52.10;;;;;;5002309;28;20420;-81
2022/10/05 04:16:51;;;;;;;5.33;4.07;;;23.10;51.90;;;;;;5002054;28;20464;-80
2022/10/05 04:19:21;;;;;;;3.70;3.40;;;23.10;52.20;;;;;;4989803;28;20477;-80
2022/10/05 04:21:51;;;;;;;4.20;3.70;;;23.10;52.30;;;;;;4989868;28;20485;-80
2022/10/05 04:24:20;;;;;;;4.00;3.57;;;23.10;52.10;;;;;;4997291;28;20462;-81
2022/10/05 04:26:50;;;;;;;4.07;3.77;;;23.10;52.30;;;;;;5001232;28;20476;-80
2022/10/05 04:29:26;;;;;;;4.80;4.33;;;23.10;52.30;;;;;;5000534;28;20452;-81
2022/10/05 04:32:04;;;;;;;5.50;3.93;;;23.10;52.30;;;;;;4999802;28;20481;-81
2022/10/05 04:34:44;;;;;;;4.70;4.17;;;23.10;52.10;;;;;;5001873;28;20438;-80
2022/10/05 04:37:14;;;;;;;4.00;3.70;;;23.00;52.30;;;;;;4994701;28;20453;-80
2022/10/05 04:39:45;;;;;;;4.80;4.20;;;23.00;52.20;;;;;;4991636;28;20507;-80
2022/10/05 04:42:16;;;;;;;3.87;3.57;;;23.00;52.30;;;;;;4999171;28;20477;-80
2022/10/05 04:44:53;;;;;;;4.93;4.47;;;23.00;52.30;;;;;;5000066;28;20426;-80
2022/10/05 04:47:36;;;;;;;4.17;3.77;;;23.00;52.40;;;;;;4996813;28;20516;-80
2022/10/05 04:50:16;;;;;;;4.20;3.90;;;23.00;52.40;;;;;;4990154;28;20429;-81
2022/10/05 04:52:49;;;;;;;3.93;3.63;;;23.00;52.40;;;;;;4998097;28;20441;-80
2022/10/05 04:55:22;;;;;;;4.40;4.10;;;23.00;52.50;;;;;;4996833;28;20460;-81
2022/10/05 04:57:50;;;;;;;4.67;4.27;;;23.00;52.40;;;;;;4991514;28;20457;-80
2022/10/05 05:00:22;;;;;;;4.37;3.97;;;22.90;52.90;;;;;;4998945;28;20473;-80
2022/10/05 05:03:16;;;;;;;4.00;3.70;;;23.00;52.20;;;;;;4998006;28;20440;-80
2022/10/05 05:05:49;;;;;;;3.80;3.53;;;22.90;52.30;;;;;;4984567;28;20433;-80
2022/10/05 05:08:46;;;;;;;4.80;4.20;;;22.90;52.60;;;;;;4992811;28;20839;-80
2022/10/05 05:11:21;;;;;;;5.13;4.50;;;22.90;52.40;;;;;;4990994;28;20530;-81
2022/10/05 05:14:11;;;;;;;4.30;3.97;;;22.90;52.40;;;;;;4996068;28;20415;-80
2022/10/05 05:16:39;;;;;;;4.30;3.97;;;22.80;52.50;;;;;;4988916;28;20482;-80
2022/10/05 05:19:24;;;;;;;4.47;4.17;;;22.80;52.60;;;;;;4994771;28;20473;-80
2022/10/05 05:21:57;;;;;;;4.47;3.90;;;22.90;52.70;;;;;;4996913;28;20507;-81
2022/10/05 05:24:31;;;;;;;4.30;4.00;;;22.80;52.50;;;;;;4998424;28;20825;-80
2022/10/05 05:27:10;;;;;;;4.13;3.80;;;22.80;52.60;;;;;;4992668;28;20446;-80
2022/10/05 05:29:44;;;;;;;5.60;4.80;;;22.80;52.50;;;;;;4998396;28;20952;-82
2022/10/05 05:32:17;;;;;;;4.30;4.00;;;22.80;52.70;;;;;;4998430;28;20465;-81
2022/10/05 05:34:54;;;;;;;4.17;3.80;;;22.80;52.60;;;;;;4999246;28;20441;-82
2022/10/05 05:37:25;;;;;;;5.40;4.20;;;22.80;52.80;;;;;;4996265;28;20457;-80
2022/10/05 05:39:55;;;;;;;5.47;4.17;;;22.80;52.80;;;;;;4997757;28;20443;-80
2022/10/05 05:42:29;;;;;;;7.67;4.43;;;22.70;52.70;;;;;;4987909;28;20506;-80
2022/10/05 05:44:57;;;;;;;4.83;4.13;;;22.70;52.50;;;;;;4994035;28;20940;-80
2022/10/05 05:47:27;;;;;;;6.13;3.93;;;22.70;52.80;;;;;;5003655;28;20473;-80
2022/10/05 05:50:10;;;;;;;4.80;4.30;;;22.70;52.80;;;;;;4999209;28;20532;-81
2022/10/05 05:52:40;;;;;;;4.83;4.40;;;22.70;52.80;;;;;;4991548;28;20457;-81
2022/10/05 05:55:12;;;;;;;9.60;4.23;;;22.70;52.80;;;;;;4997954;28;20781;-81
2022/10/05 05:57:42;;;;;;;5.50;5.00;;;22.70;52.90;;;;;;4998788;28;20936;-81
2022/10/05 06:00:18;;;;;;;5.60;4.30;;;22.70;52.90;;;;;;4982531;28;20473;-80
2022/10/05 06:02:48;;;;;;;5.87;4.30;;;22.70;52.80;;;;;;4997075;28;20432;-81
2022/10/05 06:05:32;;;;;;;5.77;5.03;;;22.70;52.90;;;;;;4997018;28;20460;-81
2022/10/05 06:08:02;;;;;;;4.83;4.33;;;22.70;52.90;;;;;;4997250;28;20441;-81
2022/10/05 06:10:33;;;;;;;6.87;4.77;;;22.70;52.90;;;;;;4996519;28;20462;-81
2022/10/05 06:13:04;;;;;;;4.37;3.97;;;22.70;52.90;;;;;;4996182;28;20461;-80
2022/10/05 06:15:34;;;;;;;4.83;4.43;;;22.70;52.80;;;;;;4993250;28;20460;-80
2022/10/05 06:18:03;;;;;;;5.00;4.50;;;22.70;53.00;;;;;;4996694;28;20429;-81
2022/10/05 06:20:36;;;;;;;4.37;3.97;;;22.70;52.90;;;;;;4997459;28;20524;-81
2022/10/05 06:23:05;;;;;;;5.30;4.80;;;22.70;52.90;;;;;;4996440;28;20423;-81
2022/10/05 06:25:36;;;;;;;6.03;5.03;;;22.70;52.90;;;;;;4996861;28;20437;-81
2022/10/05 06:28:08;;;;;;;4.97;4.57;;;22.70;52.80;;;;;;4996183;28;20462;-80
2022/10/05 06:30:44;;;;;;;6.63;4.43;;;22.70;52.80;;;;;;4991118;28;20477;-79
2022/10/05 06:33:19;;;;;;;5.00;4.60;;;22.70;52.80;;;;;;4995006;28;20423;-80
2022/10/05 06:35:56;;;;;;;6.70;5.00;;;22.70;52.90;;;;;;4994497;28;20448;-80
2022/10/05 06:38:45;;;;;;;5.00;4.50;;;22.70;53.00;;;;;;4994837;28;20445;-82
2022/10/05 06:41:16;;;;;;;4.87;4.37;;;22.70;52.90;;;;;;4996423;28;20512;-80
2022/10/05 06:43:48;;;;;;;6.30;5.17;;;22.70;53.50;;;;;;4986214;28;20404;-80
2022/10/05 06:46:20;;;;;;;5.33;4.50;;;22.70;53.10;;;;;;4990700;28;20931;-81
2022/10/05 06:48:57;;;;;;;5.87;4.97;;;22.70;52.90;;;;;;4986780;28;20496;-80
2022/10/05 06:51:29;;;;;;;7.10;5.30;;;22.70;53.00;;;;;;4986509;28;20474;-80
2022/10/05 06:54:02;;;;;;;8.23;5.13;;;22.70;52.90;;;;;;4995032;28;20522;-80
2022/10/05 06:56:33;;;;;;;5.27;4.40;;;22.70;52.90;;;;;;4989331;28;20466;-79
2022/10/05 06:59:03;;;;;;;6.00;4.83;;;22.70;52.90;;;;;;4996830;28;20456;-80
2022/10/05 07:01:38;;;;;;;5.03;4.63;;;22.70;53.00;;;;;;4995782;28;20484;-80
2022/10/05 07:04:15;;;;;;;5.13;4.73;;;22.70;52.90;;;;;;4989489;28;20456;-80
2022/10/05 07:06:46;;;;;;;4.50;4.10;;;22.70;53.00;;;;;;4986887;28;20488;-80
2022/10/05 07:09:24;;;;;;;6.57;5.97;;;22.70;52.90;;;;;;4994612;28;20453;-80
2022/10/05 07:11:58;;;;;;;5.63;4.97;;;22.70;52.80;;;;;;4989785;28;20457;-79
2022/10/05 07:14:39;;;;;;;5.37;4.60;;;22.70;53.00;;;;;;4992690;28;20509;-80
2022/10/05 07:17:26;;;;;;;5.70;5.10;;;22.70;52.80;;;;;;4994622;28;20452;-80
2022/10/05 07:19:57;;;;;;;5.50;4.97;;;22.70;52.90;;;;;;4985228;28;20423;-80
2022/10/05 07:22:47;;;;;;;5.87;5.23;;;22.70;53.00;;;;;;4992023;28;20491;-80
2022/10/05 07:25:16;;;;;;;5.13;4.60;;;22.70;52.90;;;;;;4980653;28;20437;-80
2022/10/05 07:27:48;;;;;;;6.20;4.80;;;22.70;52.90;;;;;;4996938;28;20433;-80
2022/10/05 07:30:18;;;;;;;6.30;5.00;;;22.80;52.80;;;;;;4996501;28;20437;-79
2022/10/05 07:32:51;;;;;;;5.23;4.73;;;22.80;53.10;;;;;;4983738;28;20416;-79
2022/10/05 07:38:12;;;;;;;11.17;4.73;;;22.90;52.80;;;;;;4988349;28;20480;-81
2022/10/05 07:40:42;;;;;;;5.20;4.40;;;22.90;52.90;;;;;;4985873;28;20467;-81
2022/10/05 07:43:22;;;;;;;6.00;4.77;;;22.90;52.90;;;;;;4982348;28;20441;-80
2022/10/05 07:45:52;;;;;;;6.43;4.77;;;23.00;52.80;;;;;;4991244;28;20445;-81
2022/10/05 07:48:21;;;;;;;5.43;4.77;;;23.00;52.90;;;;;;4989366;28;20486;-81
2022/10/05 07:50:59;;;;;;;4.90;4.40;;;23.00;52.60;;;;;;4980678;28;20447;-81
2022/10/05 07:53:31;;;;;;;7.23;4.80;;;23.10;52.90;;;;;;4995117;28;20441;-81
2022/10/05 07:56:02;;;;;;;5.23;4.73;;;23.10;52.80;;;;;;4983435;28;20462;-80
2022/10/05 07:58:31;;;;;;;5.40;4.90;;;23.10;52.70;;;;;;4985634;28;20449;-80
2022/10/05 08:01:08;;;;;;;5.50;5.00;;;23.10;52.80;;;;;;4992068;28;20463;-80
2022/10/05 08:03:43;;;;;;;4.83;4.40;;;23.20;52.80;;;;;;4982180;28;20465;-80
2022/10/05 08:06:12;;;;;;;4.67;4.27;;;23.20;52.50;;;;;;4996290;28;20839;-80
2022/10/05 08:08:44;;;;;;;5.50;4.43;;;23.10;52.60;;;;;;4995572;28;20444;-79
2022/10/05 08:11:14;;;;;;;7.20;5.00;;;23.10;52.70;;;;;;4991144;28;20506;-79
2022/10/05 08:13:44;;;;;;;4.90;4.50;;;23.20;52.80;;;;;;4989988;28;20472;-79
2022/10/05 08:16:13;;;;;;;5.30;4.10;;;23.20;52.70;;;;;;4987331;28;20465;-79
2022/10/05 08:18:48;;;;;;;5.20;4.70;;;23.20;52.70;;;;;;4987961;28;20457;-79
2022/10/05 08:21:17;;;;;;;4.60;4.20;;;23.30;52.80;;;;;;4980961;28;20451;-80
2022/10/05 08:23:47;;;;;;;5.13;4.40;;;23.30;52.70;;;;;;4987043;28;20445;-79
2022/10/05 08:26:18;;;;;;;5.10;4.70;;;23.30;52.60;;;;;;4995036;28;20416;-79
2022/10/05 08:28:49;;;;;;;4.23;4.03;;;23.30;52.70;;;;;;4994819;28;20508;-78
2022/10/05 08:31:20;;;;;;;4.37;4.07;;;23.30;52.60;;;;;;4991506;28;20473;-79
2022/10/05 08:33:54;;;;;;;5.73;4.30;;;23.30;52.70;;;;;;4980753;28;20510;-79
2022/10/05 08:36:27;;;;;;;4.80;4.40;;;23.30;52.80;;;;;;4995058;28;20446;-79
2022/10/05 08:38:58;;;;;;;4.20;3.90;;;23.30;52.60;;;;;;4990735;28;20460;-80
2022/10/05 08:41:46;;;;;;;4.90;4.50;;;23.30;52.60;;;;;;4992132;28;20477;-79
2022/10/05 08:44:49;;;;;;;4.20;3.90;;;23.40;52.70;;;;;;4986731;28;20461;-81
2022/10/05 08:47:40;;;;;;;7.47;4.63;;;23.40;52.70;;;;;;4987257;28;20449;-80
2022/10/05 08:50:19;;;;;;;4.77;4.33;;;23.40;52.70;;;;;;4989875;28;20412;-80
2022/10/05 08:53:02;;;;;;;4.30;4.00;;;23.40;52.70;;;;;;4995234;28;20415;-80
2022/10/05 08:55:36;;;;;;;4.30;4.00;;;23.40;52.50;;;;;;4991034;28;20457;-80
2022/10/05 08:58:49;;;;;;;4.40;4.10;;;23.40;52.60;;;;;;4990114;28;20465;-81
2022/10/05 09:01:20;;;;;;;4.50;4.10;;;23.40;52.60;;;;;;4990554;28;20463;-80
2022/10/05 09:04:05;;;;;;;4.33;3.93;;;23.40;52.60;;;;;;4984001;28;20436;-80
2022/10/05 09:06:55;;;;;;;3.80;3.60;;;23.50;52.80;;;;;;4987477;28;20428;-80
2022/10/05 09:09:34;;;;;;;3.93;3.67;;;23.50;52.80;;;;;;4988452;28;20423;-80
2022/10/05 09:12:18;;;;;;;4.53;3.87;;;23.50;52.70;;;;;;4988474;28;20670;-81
2022/10/05 09:14:49;;;;;;;5.50;4.23;;;23.50;52.60;;;;;;4995526;28;20441;-80
2022/10/05 09:18:06;;;;;;;3.83;3.60;;;23.50;52.80;;;;;;4984232;28;20450;-80
2022/10/05 09:20:37;;;;;;;5.60;4.60;;;23.60;52.60;;;;;;4987916;28;20536;-81
2022/10/05 09:23:12;;;;;;;3.93;3.73;;;23.60;52.50;;;;;;4986486;28;20480;-80
2022/10/05 09:25:56;;;;;;;4.77;3.73;;;23.70;52.50;;;;;;4986156;28;20432;-81
2022/10/05 09:28:29;;;;;;;4.27;4.00;;;23.70;52.50;;;;;;4985589;28;20485;-79
2022/10/05 09:31:14;;;;;;;4.03;3.73;;;23.80;52.50;;;;;;4984037;28;20517;-80
2022/10/05 09:34:14;;;;;;;4.20;3.90;;;23.90;52.40;;;;;;4990288;28;20450;-80
2022/10/05 09:37:08;;;;;;;5.23;4.77;;;23.90;52.30;;;;;;4987837;28;20457;-80
2022/10/05 09:39:44;;;;;;;4.00;3.70;;;23.90;52.20;;;;;;4984000;28;20463;-80
2022/10/05 09:42:40;;;;;;;3.80;3.50;;;24.00;52.10;;;;;;4984419;28;20504;-80
2022/10/05 09:45:43;;;;;;;4.27;3.87;;;24.10;52.00;;;;;;4972774;28;20469;-80
2022/10/05 09:48:39;;;;;;;4.40;3.80;;;24.10;51.90;;;;;;4978851;28;20457;-80
2022/10/05 09:51:40;;;;;;;3.80;3.50;;;24.10;52.00;;;;;;4980991;28;20477;-80
2022/10/05 09:54:55;;;;;;;4.03;3.73;;;24.30;52.00;;;;;;4980615;28;20431;-80
2022/10/05 09:57:51;;;;;;;5.00;3.90;;;24.30;51.80;;;;;;4976953;28;20432;-80
2022/10/05 10:00:24;;;;;;;4.00;3.67;;;24.40;51.70;;;;;;4983985;28;20477;-79
2022/10/05 10:03:17;;;;;;;4.30;4.00;;;24.40;51.30;;;;;;4976954;28;20467;-80
2022/10/05 10:06:09;;;;;;;4.37;3.97;;;24.50;51.30;;;;;;4993673;28;20437;-80
2022/10/05 10:08:43;;;;;;;3.73;3.53;;;24.50;51.40;;;;;;4991855;28;20540;-80
2022/10/05 10:11:23;;;;;;;4.10;3.80;;;24.60;51.20;;;;;;4990330;28;20477;-80
2022/10/05 10:14:09;;;;;;;4.07;3.67;;;24.60;51.20;;;;;;4985138;28;20415;-80
2022/10/05 10:16:48;;;;;;;4.10;3.70;;;24.60;51.00;;;;;;4991538;28;20458;-80
2022/10/05 10:19:44;;;;;;;3.90;3.70;;;24.70;50.90;;;;;;4982601;28;20431;-80
2022/10/05 10:22:56;;;;;;;3.70;3.40;;;24.70;50.70;;;;;;4987181;28;20984;-79
2022/10/05 10:25:33;;;;;;;3.67;3.47;;;24.80;51.00;;;;;;4974295;28;20461;-80
2022/10/05 10:28:19;;;;;;;4.43;3.50;;;24.80;50.70;;;;;;4980113;28;20432;-80
2022/10/05 10:30:57;;;;;;;3.83;3.63;;;24.80;50.80;;;;;;4981650;28;20843;-79
2022/10/05 10:33:53;;;;;;;3.60;3.40;;;24.80;50.50;;;;;;4976664;28;20471;-80
2022/10/05 10:36:22;;;;;;;3.37;3.10;;;24.90;50.60;;;;;;4983110;28;20457;-80
2022/10/05 10:39:01;;;;;;;3.60;3.40;;;24.90;50.50;;;;;;4986009;28;20436;-80
2022/10/05 10:41:54;;;;;;;3.87;3.23;;;24.90;50.50;;;;;;4976290;28;20473;-80
2022/10/05 10:44:50;;;;;;;3.50;3.30;;;24.90;50.50;;;;;;4976269;28;20433;-80
2022/10/05 10:47:47;;;;;;;3.90;3.00;;;24.90;50.60;;;;;;4980574;28;20457;-80
2022/10/05 10:50:42;;;;;;;3.60;3.30;;;24.90;50.60;;;;;;4980855;28;20469;-80
2022/10/05 10:53:22;;;;;;;3.23;3.00;;;24.90;50.50;;;;;;4983380;28;20462;-80
2022/10/05 10:55:54;;;;;;;3.17;3.07;;;25.00;50.40;;;;;;4982354;28;20464;-79
2022/10/05 10:58:44;;;;;;;2.97;2.80;;;25.00;50.30;;;;;;4976640;28;20459;-80
2022/10/05 11:01:22;;;;;;;2.83;2.73;;;25.00;50.40;;;;;;4977089;28;20519;-80
2022/10/05 11:04:27;;;;;;;3.20;3.00;;;25.10;50.20;;;;;;4982375;28;20535;-80
2022/10/05 11:07:10;;;;;;;3.30;3.10;;;25.00;50.30;;;;;;4979177;28;20449;-80
2022/10/05 11:09:59;;;;;;;3.40;3.20;;;25.10;50.10;;;;;;4985153;28;20441;-81
2022/10/05 11:12:48;;;;;;;3.37;3.07;;;25.10;50.00;;;;;;4982001;28;20473;-81
2022/10/05 11:15:52;;;;;;;2.83;2.63;;;25.10;50.10;;;;;;4984298;28;20441;-80
2022/10/05 11:18:21;;;;;;;3.00;2.80;;;25.10;49.90;;;;;;4977074;28;20428;-80
2022/10/05 11:21:30;;;;;;;3.63;2.80;;;25.20;49.80;;;;;;4979873;28;20484;-80
2022/10/05 11:24:37;;;;;;;2.57;2.47;;;25.20;49.70;;;;;;4979520;28;20477;-80
2022/10/05 11:27:24;;;;;;;2.90;2.80;;;25.20;49.90;;;;;;4988999;28;20452;-79
2022/10/05 11:30:21;;;;;;;2.97;2.80;;;25.30;49.50;;;;;;4978584;28;20465;-80
2022/10/05 11:33:12;;;;;;;3.00;2.80;;;25.40;49.40;;;;;;4957304;28;20450;-80
2022/10/05 11:36:20;;;;;;;2.83;2.40;;;25.50;49.00;;;;;;4985368;28;20499;-80
2022/10/05 11:39:02;;;;;;;2.87;2.63;;;25.50;49.20;;;;;;4974674;28;20444;-80
2022/10/05 11:41:54;;;;;;;2.90;2.60;;;25.60;48.80;;;;;;4985446;28;20452;-80
2022/10/05 11:44:41;;;;;;;3.50;2.90;;;25.60;49.00;;;;;;4983015;28;20477;-80
2022/10/05 11:47:12;;;;;;;2.77;2.57;;;25.70;49.10;;;;;;4992985;28;20431;-80
2022/10/05 11:49:41;;;;;;;2.70;2.50;;;26.10;49.10;;;;;;4995272;28;20464;-80
2022/10/05 11:52:11;;;;;;;2.50;2.40;;;26.40;48.00;;;;;;4998912;28;20447;-81
2022/10/05 11:55:04;;;;;;;2.40;2.30;;;26.50;47.60;;;;;;5003434;28;20435;-81
2022/10/05 11:57:42;;;;;;;4.13;2.57;;;26.80;47.50;;;;;;4997636;28;20431;-81
2022/10/05 12:00:13;;;;;;;2.50;2.40;;;27.00;47.10;;;;;;4996458;28;20423;-81
2022/10/05 12:03:09;;;;;;;2.50;2.40;;;27.00;46.70;;;;;;4997742;28;20491;-80
2022/10/05 12:05:40;;;;;;;2.27;2.17;;;27.10;46.60;;;;;;5000794;28;20452;-81
2022/10/05 12:08:19;;;;;;;2.57;2.37;;;27.00;46.60;;;;;;4989164;28;20449;-80
2022/10/05 12:10:51;;;;;;;2.20;2.10;;;27.00;46.80;;;;;;4998797;28;20489;-81
2022/10/05 12:13:25;;;;;;;2.93;2.73;;;27.10;46.70;;;;;;5006755;28;20423;-81
2022/10/05 12:15:55;;;;;;;2.77;2.57;;;27.10;46.80;;;;;;4996882;28;20419;-80
2022/10/05 12:18:38;;;;;;;2.60;2.50;;;27.30;46.40;;;;;;4996023;28;20519;-81
2022/10/05 12:21:09;;;;;;;2.67;2.47;;;27.50;46.60;;;;;;4988918;28;20483;-80
2022/10/05 12:23:39;;;;;;;2.50;2.40;;;28.00;46.70;;;;;;4988909;28;20474;-81
2022/10/05 12:26:09;;;;;;;2.27;2.17;;;28.90;44.40;;;;;;4991220;28;20460;-81
2022/10/05 12:28:41;;;;;;;2.40;2.20;;;29.60;45.50;;;;;;4991807;28;20464;-81
2022/10/05 12:31:22;;;;;;;1.90;1.80;;;30.60;42.40;;;;;;4989059;28;20482;-83
2022/10/05 12:33:54;;;;;;;2.20;2.03;;;31.90;40.20;;;;;;4987864;28;20548;-81
2022/10/05 12:36:26;;;;;;;2.40;2.30;;;31.60;39.70;;;;;;4997596;28;20433;-82
2022/10/05 12:39:15;;;;;;;2.23;1.80;;;32.20;40.70;;;;;;4988686;28;20456;-82
2022/10/05 12:41:46;;;;;;;2.40;2.20;;;32.50;38.60;;;;;;4988925;28;20465;-82
2022/10/05 12:44:18;;;;;;;5.33;2.27;;;32.50;38.60;;;;;;4989082;28;20486;-81
2022/10/05 12:46:51;;;;;;;2.17;2.07;;;32.20;39.10;;;;;;4986070;28;20457;-82
2022/10/05 12:49:31;;;;;;;3.37;2.07;;;32.10;39.60;;;;;;4983203;28;20446;-82
2022/10/05 12:52:00;;;;;;;2.33;2.13;;;31.90;39.60;;;;;;4989794;28;20476;-81
2022/10/05 12:54:34;;;;;;;2.57;2.47;;;31.30;40.10;;;;;;4997255;28;20508;-81
2022/10/05 12:57:05;;;;;;;2.40;2.30;;;30.70;40.80;;;;;;4984712;28;20456;-80
2022/10/05 12:59:39;;;;;;;5.30;2.07;;;30.50;41.70;;;;;;4988993;28;20453;-81
2022/10/05 13:02:15;;;;;;;2.23;2.10;;;30.20;42.00;;;;;;4991277;28;20480;-81
2022/10/05 13:04:47;;;;;;;2.50;2.40;;;29.80;42.50;;;;;;4995079;28;20469;-80
2022/10/05 13:07:28;;;;;;;2.40;2.30;;;29.50;43.10;;;;;;4991356;28;20462;-81
2022/10/05 13:09:59;;;;;;;2.80;2.60;;;29.20;43.60;;;;;;4992813;28;20460;-82
2022/10/05 13:12:34;;;;;;;2.43;2.30;;;28.90;44.00;;;;;;4988212;28;20461;-81
2022/10/05 13:15:07;;;;;;;4.07;2.30;;;28.70;44.50;;;;;;4989127;28;20448;-81
2022/10/05 13:17:37;;;;;;;2.30;2.10;;;28.50;44.80;;;;;;4990595;28;20460;-81
2022/10/05 13:20:11;;;;;;;2.43;2.30;;;28.40;45.30;;;;;;4987096;28;20460;-81
2022/10/05 13:22:40;;;;;;;2.70;2.60;;;28.30;45.30;;;;;;4986857;28;21176;-80
2022/10/05 13:25:18;;;;;;;2.27;2.17;;;28.20;45.60;;;;;;4992935;28;20480;-81
2022/10/05 13:27:48;;;;;;;2.93;2.57;;;28.00;45.70;;;;;;4994512;28;20783;-81
2022/10/05 13:30:18;;;;;;;2.10;2.00;;;27.90;46.00;;;;;;4988153;28;20454;-82
2022/10/05 13:32:47;;;;;;;2.50;2.40;;;27.80;46.20;;;;;;4987759;28;20451;-83
2022/10/05 13:35:25;;;;;;;3.20;2.60;;;27.70;46.30;;;;;;4997228;28;20463;-81
2022/10/05 13:38:00;;;;;;;2.50;2.40;;;27.60;46.60;;;;;;4990728;28;20527;-81